Time;durP1;ratioP1;P1;durP2;ratioP2;P2;SDS_P1;SDS_P2;PMS_P1;PMS_P2;Temp;Humidity;BMP_temperature;BMP_pressure;BME280_temperature;BME280_humidity;BME280_pressure;Samples;Min_cycle;Max_cycle;Signal;HPM_P1;HPM_P2
2020/12/24 00:02:15;;;;;;;3.87;3.47;;;6.80;99.90;;;;;;4985785;28;20186;-64
2020/12/24 00:04:41;;;;;;;5.07;2.80;;;6.90;99.90;;;;;;4986833;28;20683;-65
2020/12/24 00:07:07;;;;;;;3.35;2.95;;;6.70;99.90;;;;;;4981596;28;20626;-64
2020/12/24 00:09:32;;;;;;;5.50;3.83;;;6.50;99.90;;;;;;4981150;28;20222;-64
2020/12/24 00:11:58;;;;;;;5.03;3.80;;;6.50;99.90;;;;;;4981297;28;20215;-63
2020/12/24 00:14:24;;;;;;;4.97;4.10;;;6.60;99.90;;;;;;4984880;28;20262;-63
2020/12/24 00:16:49;;;;;;;4.20;3.50;;;6.90;99.90;;;;;;4984897;28;20187;-64
2020/12/24 00:19:15;;;;;;;6.60;4.13;;;6.60;99.90;;;;;;4986691;28;20195;-60
2020/12/24 00:21:41;;;;;;;4.73;4.20;;;6.40;99.90;;;;;;4985319;28;20274;-61
2020/12/24 00:24:06;;;;;;;7.10;5.00;;;6.50;99.90;;;;;;4984070;28;20214;-59
2020/12/24 00:26:32;;;;;;;8.60;6.00;;;6.70;99.90;;;;;;4978824;28;20196;-59
2020/12/24 00:28:58;;;;;;;9.67;6.70;;;6.80;99.90;;;;;;4981521;28;20566;-63
2020/12/24 00:31:24;;;;;;;6.30;5.70;;;6.50;99.90;;;;;;4985739;28;20238;-59
2020/12/24 00:33:50;;;;;;;13.13;6.60;;;6.30;99.90;;;;;;4984655;28;20843;-63
2020/12/24 00:36:16;;;;;;;6.57;5.27;;;6.60;99.90;;;;;;4986679;28;20497;-58
2020/12/24 00:38:41;;;;;;;5.82;4.95;;;6.70;99.90;;;;;;4980967;28;20196;-58
2020/12/24 00:41:07;;;;;;;8.27;5.10;;;6.60;99.90;;;;;;4976168;28;20191;-61
2020/12/24 00:43:34;;;;;;;6.10;4.15;;;6.60;99.90;;;;;;4974921;28;20251;-58
2020/12/24 00:45:59;;;;;;;6.60;4.82;;;6.50;99.90;;;;;;4974001;28;20184;-58
2020/12/24 00:48:25;;;;;;;7.93;4.90;;;6.60;99.90;;;;;;4974228;28;20265;-58
2020/12/24 00:50:50;;;;;;;6.27;5.23;;;6.50;99.90;;;;;;4974479;28;20172;-58
2020/12/24 00:53:16;;;;;;;8.60;6.03;;;6.50;99.90;;;;;;4973902;28;20180;-58
2020/12/24 00:55:42;;;;;;;5.47;4.00;;;6.60;99.90;;;;;;4974399;28;20195;-58
2020/12/24 00:58:08;;;;;;;8.00;4.77;;;6.80;99.90;;;;;;4974015;28;20216;-58
2020/12/24 01:00:33;;;;;;;6.10;3.87;;;6.70;99.90;;;;;;4975401;28;20186;-58
2020/12/24 01:02:59;;;;;;;7.87;3.10;;;6.20;99.90;;;;;;4975617;28;20725;-58
2020/12/24 01:05:24;;;;;;;4.60;3.30;;;6.00;99.90;;;;;;4975448;28;20180;-60
2020/12/24 01:07:50;;;;;;;6.03;3.23;;;6.00;99.90;;;;;;4975664;28;20524;-58
2020/12/24 01:10:16;;;;;;;6.60;4.03;;;6.20;99.90;;;;;;4975630;28;20605;-58
2020/12/24 01:12:41;;;;;;;6.40;3.00;;;6.20;99.90;;;;;;4975505;28;20268;-58
2020/12/24 01:15:08;;;;;;;5.63;3.20;;;5.80;99.90;;;;;;4975228;28;20218;-58
2020/12/24 01:17:34;;;;;;;5.05;3.17;;;5.90;99.90;;;;;;4975338;28;20207;-58
2020/12/24 01:20:00;;;;;;;3.00;2.25;;;5.80;99.90;;;;;;4975405;28;20188;-58
2020/12/24 01:22:26;;;;;;;5.23;2.90;;;5.60;99.90;;;;;;4975448;28;20247;-58
2020/12/24 01:24:51;;;;;;;3.50;3.07;;;5.80;99.90;;;;;;4975067;28;20566;-58
2020/12/24 01:27:17;;;;;;;4.20;2.67;;;5.60;99.90;;;;;;4975314;28;20180;-58
2020/12/24 01:29:42;;;;;;;3.67;2.33;;;5.60;99.90;;;;;;4975805;28;20574;-58
2020/12/24 01:32:08;;;;;;;3.00;1.83;;;5.70;99.90;;;;;;4975313;28;20235;-58
2020/12/24 01:34:33;;;;;;;4.10;2.50;;;5.70;99.90;;;;;;4975061;28;20181;-58
2020/12/24 01:37:02;;;;;;;3.80;2.03;;;5.60;99.90;;;;;;4974127;28;20267;-58
2020/12/24 01:39:29;;;;;;;3.88;2.10;;;5.50;99.90;;;;;;4975105;28;20185;-58
2020/12/24 01:41:55;;;;;;;4.20;2.60;;;5.40;99.90;;;;;;4975105;28;20198;-58
2020/12/24 01:44:21;;;;;;;2.53;2.33;;;5.40;99.90;;;;;;4974663;28;20503;-58
2020/12/24 01:46:48;;;;;;;3.57;2.60;;;5.50;99.90;;;;;;4974968;28;20191;-58
2020/12/24 01:49:13;;;;;;;5.15;2.90;;;5.40;99.90;;;;;;4974915;28;20543;-58
2020/12/24 01:51:51;;;;;;;2.70;2.43;;;5.50;99.90;;;;;;4974901;28;20179;-58
2020/12/24 01:54:19;;;;;;;2.63;2.38;;;5.30;99.90;;;;;;4973710;28;20434;-58
2020/12/24 01:56:46;;;;;;;3.55;2.38;;;5.30;99.90;;;;;;4974792;28;20259;-58
2020/12/24 01:59:15;;;;;;;4.28;2.38;;;5.20;99.90;;;;;;4974814;28;20523;-58
2020/12/24 02:01:50;;;;;;;2.92;2.63;;;5.40;99.90;;;;;;4974866;28;20275;-58
2020/12/24 02:04:17;;;;;;;3.75;3.10;;;5.20;99.90;;;;;;4975063;28;20676;-58
2020/12/24 02:06:43;;;;;;;36.90;16.35;;;5.30;99.90;;;;;;4974790;28;20574;-58
2020/12/24 02:09:09;;;;;;;3.92;1.48;;;5.40;99.90;;;;;;4974629;28;20215;-58
2020/12/24 02:11:37;;;;;;;3.45;2.15;;;5.40;99.90;;;;;;4974885;28;20194;-61
2020/12/24 02:14:02;;;;;;;2.08;1.65;;;5.20;99.90;;;;;;4975079;28;20188;-62
2020/12/24 02:16:28;;;;;;;6.50;2.27;;;5.00;99.90;;;;;;4977534;28;20179;-62
2020/12/24 02:18:53;;;;;;;2.50;1.40;;;5.20;99.90;;;;;;4978743;28;20180;-62
2020/12/24 02:21:19;;;;;;;2.63;1.90;;;5.20;99.90;;;;;;4978972;28;20238;-62
2020/12/24 02:23:45;;;;;;;2.47;1.83;;;5.10;99.90;;;;;;4977281;28;20624;-62
2020/12/24 02:26:11;;;;;;;2.67;1.50;;;5.20;99.90;;;;;;4978867;28;20190;-62
2020/12/24 02:28:36;;;;;;;5.43;1.92;;;5.20;99.90;;;;;;4977491;28;20254;-62
2020/12/24 02:31:03;;;;;;;3.87;1.90;;;5.10;99.90;;;;;;4977508;28;20191;-62
2020/12/24 02:33:28;;;;;;;3.22;1.65;;;4.90;99.90;;;;;;4978345;28;20172;-62
2020/12/24 02:35:55;;;;;;;3.60;2.00;;;5.00;99.90;;;;;;4978486;28;20495;-60
2020/12/24 02:38:20;;;;;;;2.17;1.85;;;5.00;99.90;;;;;;4978322;28;20196;-59
2020/12/24 02:40:46;;;;;;;2.23;1.60;;;5.00;99.90;;;;;;4978675;28;20184;-62
2020/12/24 02:43:11;;;;;;;2.77;2.20;;;5.00;99.90;;;;;;4978083;28;20180;-62
2020/12/24 02:45:37;;;;;;;2.10;1.60;;;4.90;99.90;;;;;;4978154;28;20187;-63
2020/12/24 02:48:03;;;;;;;3.33;2.30;;;4.80;99.90;;;;;;4978145;28;20188;-63
2020/12/24 02:50:29;;;;;;;5.70;2.50;;;4.80;99.90;;;;;;4978191;28;20184;-63
2020/12/24 02:52:54;;;;;;;1.90;1.50;;;4.80;99.90;;;;;;4977060;28;20931;-63
2020/12/24 02:55:20;;;;;;;5.83;2.50;;;4.90;99.90;;;;;;4977755;28;20609;-63
2020/12/24 02:57:45;;;;;;;3.70;2.97;;;4.80;99.90;;;;;;4978194;28;20495;-62
2020/12/24 03:00:12;;;;;;;3.10;1.87;;;4.70;99.90;;;;;;4977875;28;20484;-63
2020/12/24 03:02:38;;;;;;;3.45;2.22;;;4.90;99.90;;;;;;4977961;28;20184;-63
2020/12/24 03:05:05;;;;;;;2.65;1.92;;;4.80;99.90;;;;;;4976699;28;20218;-63
2020/12/24 03:07:30;;;;;;;5.72;2.92;;;4.70;99.90;;;;;;4977959;28;20180;-62
2020/12/24 03:09:56;;;;;;;1.73;1.63;;;4.70;99.90;;;;;;4977919;28;20217;-62
2020/12/24 03:12:23;;;;;;;2.30;1.87;;;4.70;99.90;;;;;;4976908;28;20207;-62
2020/12/24 03:14:49;;;;;;;3.40;1.92;;;4.80;99.90;;;;;;4977622;28;20186;-62
2020/12/24 03:17:14;;;;;;;2.40;2.00;;;4.80;99.90;;;;;;4977750;28;20598;-62
2020/12/24 03:19:40;;;;;;;3.77;1.73;;;4.90;99.90;;;;;;4977677;28;20442;-62
2020/12/24 03:22:05;;;;;;;3.27;2.00;;;4.90;99.90;;;;;;4977592;28;20190;-62
2020/12/24 03:24:31;;;;;;;1.73;1.40;;;5.10;99.90;;;;;;4977410;28;20191;-63
2020/12/24 03:26:56;;;;;;;2.57;2.10;;;4.90;99.90;;;;;;4976263;28;20227;-63
2020/12/24 03:29:22;;;;;;;3.70;1.90;;;4.90;99.90;;;;;;4977317;28;20241;-59
2020/12/24 03:31:47;;;;;;;3.23;2.17;;;4.80;99.90;;;;;;4977362;28;20600;-59
2020/12/24 03:34:13;;;;;;;5.63;2.23;;;5.00;99.90;;;;;;4976057;28;20191;-59
2020/12/24 03:36:38;;;;;;;1.80;1.70;;;4.90;99.90;;;;;;4977304;28;20208;-59
2020/12/24 03:39:04;;;;;;;1.77;1.60;;;4.90;99.90;;;;;;4977252;28;20198;-62
2020/12/24 03:41:29;;;;;;;2.40;1.90;;;5.00;99.90;;;;;;4977377;28;20188;-62
2020/12/24 03:43:55;;;;;;;2.83;1.90;;;5.00;99.90;;;;;;4977107;28;20256;-62
2020/12/24 03:46:20;;;;;;;2.30;1.50;;;5.00;99.90;;;;;;4977139;28;20194;-62
2020/12/24 03:48:46;;;;;;;4.90;1.33;;;5.10;99.90;;;;;;4977245;28;20214;-63
2020/12/24 03:51:11;;;;;;;4.67;1.57;;;4.90;99.90;;;;;;4977279;28;20176;-63
2020/12/24 03:53:37;;;;;;;2.37;1.00;;;4.90;99.90;;;;;;4976765;28;20187;-62
2020/12/24 03:56:03;;;;;;;4.20;1.97;;;4.80;99.90;;;;;;4977112;28;20243;-59
2020/12/24 03:58:28;;;;;;;4.20;1.83;;;4.90;99.90;;;;;;4976890;28;20188;-60
2020/12/24 04:00:54;;;;;;;3.10;1.40;;;4.80;99.90;;;;;;4976858;28;20240;-59
2020/12/24 04:03:19;;;;;;;6.73;2.73;;;4.90;99.90;;;;;;4976580;28;20524;-59
2020/12/24 04:05:46;;;;;;;3.03;2.07;;;4.70;99.90;;;;;;4977012;28;20545;-59
2020/12/24 04:08:11;;;;;;;4.00;1.80;;;4.60;99.90;;;;;;4976683;28;20192;-59
2020/12/24 04:10:43;;;;;;;1.93;1.23;;;4.70;99.90;;;;;;4977237;28;20608;-59
2020/12/24 04:13:09;;;;;;;2.38;1.73;;;4.70;99.90;;;;;;4977052;28;20190;-62
2020/12/24 04:15:35;;;;;;;2.73;1.43;;;4.50;99.90;;;;;;4977788;28;20183;-63
2020/12/24 04:18:01;;;;;;;1.77;1.60;;;4.60;99.90;;;;;;4977149;28;20668;-59
2020/12/24 04:20:26;;;;;;;4.57;1.70;;;4.60;99.90;;;;;;4974866;28;20271;-59
2020/12/24 04:22:52;;;;;;;1.40;1.30;;;4.50;99.90;;;;;;4975362;28;20180;-59
2020/12/24 04:25:17;;;;;;;2.03;1.33;;;4.50;99.90;;;;;;4976228;28;20184;-59
2020/12/24 04:27:43;;;;;;;1.70;1.60;;;4.50;99.90;;;;;;4976583;28;20625;-63
2020/12/24 04:30:08;;;;;;;3.97;1.80;;;4.40;99.90;;;;;;4976294;28;20551;-59
2020/12/24 04:32:35;;;;;;;2.93;1.27;;;4.50;99.90;;;;;;4976070;28;20588;-59
2020/12/24 04:35:00;;;;;;;2.40;1.08;;;4.40;99.90;;;;;;4975940;28;20194;-58
2020/12/24 04:37:27;;;;;;;1.63;1.40;;;4.30;99.90;;;;;;4976199;28;20262;-59
2020/12/24 04:39:52;;;;;;;2.63;1.23;;;4.40;99.90;;;;;;4975769;28;20195;-59
2020/12/24 04:42:20;;;;;;;1.30;1.20;;;4.30;99.90;;;;;;4976320;28;20196;-58
2020/12/24 04:44:48;;;;;;;1.42;1.10;;;4.40;99.90;;;;;;4975911;28;20246;-58
2020/12/24 04:47:18;;;;;;;0.90;0.70;;;4.30;99.90;;;;;;4976127;28;20246;-62
2020/12/24 04:49:44;;;;;;;0.80;0.80;;;4.10;99.90;;;;;;4976231;28;20270;-62
2020/12/24 04:52:12;;;;;;;1.58;0.60;;;4.00;99.90;;;;;;4976138;28;20188;-63
2020/12/24 04:54:39;;;;;;;1.10;0.88;;;3.90;99.90;;;;;;4975762;28;20180;-62
2020/12/24 04:57:10;;;;;;;1.10;0.85;;;3.90;99.90;;;;;;4976078;28;20488;-62
2020/12/24 04:59:37;;;;;;;2.75;0.90;;;3.90;99.90;;;;;;4975673;28;20204;-62
2020/12/24 05:02:04;;;;;;;1.75;0.60;;;4.00;99.90;;;;;;4976050;28;20187;-62
2020/12/24 05:04:31;;;;;;;0.98;0.82;;;3.80;99.90;;;;;;4975590;28;20515;-61
2020/12/24 05:07:05;;;;;;;0.93;0.75;;;3.50;99.90;;;;;;4975815;28;20187;-61
2020/12/24 05:09:31;;;;;;;0.80;0.50;;;3.60;99.90;;;;;;4976005;28;20310;-61
2020/12/24 05:11:56;;;;;;;1.17;0.60;;;3.50;99.90;;;;;;4975730;28;20394;-61
2020/12/24 05:14:24;;;;;;;0.67;0.60;;;3.20;99.90;;;;;;4975382;28;20617;-61
2020/12/24 05:17:09;;;;;;;1.08;0.98;;;3.10;99.90;;;;;;4975627;28;20179;-61
2020/12/24 05:19:47;;;;;;;1.23;0.98;;;3.20;99.90;;;;;;4975849;28;20219;-57
2020/12/24 05:22:18;;;;;;;0.70;0.60;;;3.20;99.90;;;;;;4975637;28;20191;-58
2020/12/24 05:24:43;;;;;;;0.77;0.70;;;3.30;99.90;;;;;;4975263;28;20267;-57
2020/12/24 05:27:11;;;;;;;1.10;1.00;;;3.30;99.90;;;;;;4975366;28;20347;-57
2020/12/24 05:29:38;;;;;;;0.57;0.57;;;3.10;99.90;;;;;;4974413;28;20314;-60
2020/12/24 05:32:04;;;;;;;0.90;0.80;;;2.90;99.90;;;;;;4975606;28;20184;-57
2020/12/24 05:34:30;;;;;;;0.45;0.45;;;2.80;99.90;;;;;;4975842;28;20632;-60
2020/12/24 05:37:16;;;;;;;1.03;0.57;;;2.70;99.90;;;;;;4974752;28;20188;-61
2020/12/24 05:39:44;;;;;;;3.53;1.02;;;2.60;99.90;;;;;;4977858;28;20203;-61
2020/12/24 05:42:10;;;;;;;1.92;0.90;;;2.60;99.90;;;;;;4980805;28;20198;-58
2020/12/24 05:44:36;;;;;;;1.20;1.10;;;2.80;99.90;;;;;;4976977;28;20180;-58
2020/12/24 05:47:03;;;;;;;1.40;1.30;;;2.80;99.90;;;;;;4977025;28;20423;-61
2020/12/24 05:49:28;;;;;;;1.95;1.38;;;2.80;99.90;;;;;;4981935;28;20214;-58
2020/12/24 05:52:09;;;;;;;1.10;1.00;;;2.80;99.90;;;;;;4982882;28;20180;-62
2020/12/24 05:54:35;;;;;;;4.57;1.30;;;2.80;99.90;;;;;;4978428;28;20772;-62
2020/12/24 05:57:02;;;;;;;1.50;1.05;;;3.00;99.90;;;;;;4975660;28;20176;-61
2020/12/24 05:59:29;;;;;;;1.02;0.93;;;3.00;99.90;;;;;;4975415;28;20204;-61
2020/12/24 06:02:12;;;;;;;1.17;1.08;;;3.00;99.90;;;;;;4975643;28;20506;-61
2020/12/24 06:04:44;;;;;;;1.05;0.90;;;3.00;99.90;;;;;;4974863;28;20520;-61
2020/12/24 06:07:15;;;;;;;0.80;0.80;;;2.90;99.90;;;;;;4975015;28;20218;-61
2020/12/24 06:09:43;;;;;;;0.77;0.77;;;2.80;99.90;;;;;;4974910;28;20208;-62
2020/12/24 06:12:20;;;;;;;1.25;0.90;;;2.80;99.90;;;;;;4974824;28;20240;-62
2020/12/24 06:14:57;;;;;;;1.42;1.15;;;2.90;99.90;;;;;;4974552;28;20183;-62
2020/12/24 06:17:26;;;;;;;0.85;0.85;;;2.70;99.90;;;;;;4974808;28;20586;-58
2020/12/24 06:19:52;;;;;;;0.50;0.50;;;2.70;99.90;;;;;;4975093;28;20471;-61
2020/12/24 06:22:19;;;;;;;2.20;1.20;;;2.70;99.90;;;;;;4974892;28;20184;-57
2020/12/24 06:24:55;;;;;;;1.50;0.85;;;2.70;99.90;;;;;;4974637;28;20176;-58
2020/12/24 06:27:38;;;;;;;2.45;0.77;;;2.60;99.90;;;;;;4975016;28;20184;-57
2020/12/24 06:30:05;;;;;;;0.70;0.70;;;2.60;99.90;;;;;;4975930;28;20234;-61
2020/12/24 06:32:34;;;;;;;1.10;0.88;;;2.60;99.90;;;;;;4975339;28;20485;-61
2020/12/24 06:35:01;;;;;;;1.30;1.20;;;2.60;99.90;;;;;;4974678;28;20227;-58
2020/12/24 06:37:27;;;;;;;0.88;0.88;;;2.70;99.90;;;;;;4974677;28;20176;-61
2020/12/24 06:39:53;;;;;;;1.77;1.67;;;2.60;99.90;;;;;;4974706;28;20186;-61
2020/12/24 06:42:40;;;;;;;0.90;0.90;;;2.70;99.90;;;;;;4974469;28;20176;-57
2020/12/24 06:45:29;;;;;;;0.70;0.70;;;2.60;99.90;;;;;;4974340;28;20179;-61
2020/12/24 06:48:16;;;;;;;1.10;1.00;;;2.60;99.90;;;;;;4963146;28;20622;-58
2020/12/24 06:50:43;;;;;;;0.70;0.70;;;2.60;99.90;;;;;;4974739;28;20243;-57
2020/12/24 06:53:22;;;;;;;3.25;2.03;;;2.60;99.90;;;;;;4974347;28;20180;-61
2020/12/24 06:56:13;;;;;;;1.13;1.13;;;2.60;99.90;;;;;;4974468;28;20203;-61
2020/12/24 06:58:53;;;;;;;1.40;1.30;;;2.70;99.90;;;;;;4974508;28;20605;-61
2020/12/24 07:01:28;;;;;;;2.10;1.30;;;2.60;99.90;;;;;;4974996;28;20191;-57
2020/12/24 07:03:58;;;;;;;1.50;1.40;;;2.60;99.90;;;;;;4977519;28;20257;-57
2020/12/24 07:06:56;;;;;;;1.83;1.73;;;2.60;99.90;;;;;;4977697;28;20180;-58
2020/12/24 07:09:21;;;;;;;1.88;1.10;;;2.60;99.90;;;;;;4935049;28;20271;-58
2020/12/24 07:11:49;;;;;;;1.43;1.20;;;2.80;99.90;;;;;;4977790;28;20239;-58
2020/12/24 07:14:30;;;;;;;1.35;1.25;;;2.80;99.90;;;;;;4977547;28;20184;-58
2020/12/24 07:17:18;;;;;;;0.85;0.85;;;2.80;99.90;;;;;;4977594;28;20613;-58
2020/12/24 07:19:45;;;;;;;1.92;1.50;;;2.80;99.90;;;;;;4977998;28;20497;-61
2020/12/24 07:22:16;;;;;;;1.42;1.30;;;2.80;99.90;;;;;;4977715;28;20172;-61
2020/12/24 07:24:55;;;;;;;1.20;1.05;;;2.90;99.90;;;;;;4977010;28;20191;-61
2020/12/24 07:27:21;;;;;;;2.58;2.10;;;2.80;99.90;;;;;;4977426;28;20640;-58
2020/12/24 07:29:47;;;;;;;3.08;1.65;;;3.00;99.90;;;;;;4977428;28;20227;-61
2020/12/24 07:32:13;;;;;;;2.03;1.60;;;3.00;99.90;;;;;;4977783;28;20180;-58
2020/12/24 07:34:38;;;;;;;2.20;1.70;;;3.10;99.90;;;;;;4978062;28;20263;-58
2020/12/24 07:37:05;;;;;;;2.23;1.50;;;3.10;99.90;;;;;;4977456;28;20740;-62
2020/12/24 07:39:31;;;;;;;3.63;1.88;;;3.10;99.90;;;;;;4977301;28;20215;-61
2020/12/24 07:41:56;;;;;;;2.08;1.90;;;3.20;99.90;;;;;;4976091;28;20191;-61
2020/12/24 07:44:22;;;;;;;3.40;2.10;;;3.20;99.90;;;;;;4976977;28;20180;-61
2020/12/24 07:46:51;;;;;;;4.50;2.03;;;3.20;99.90;;;;;;4977134;28;20219;-61
2020/12/24 07:49:18;;;;;;;2.17;1.90;;;3.30;99.90;;;;;;4976938;28;20211;-61
2020/12/24 07:51:43;;;;;;;2.33;2.13;;;3.30;99.90;;;;;;4977078;28;20246;-61
2020/12/24 07:54:12;;;;;;;3.57;2.40;;;3.40;99.90;;;;;;4976699;28;20192;-61
2020/12/24 07:56:43;;;;;;;3.20;2.10;;;3.40;99.90;;;;;;4976842;28;20215;-61
2020/12/24 07:59:08;;;;;;;5.78;1.88;;;3.50;99.90;;;;;;4976854;28;20326;-61
2020/12/24 08:01:34;;;;;;;4.83;1.43;;;3.60;99.90;;;;;;4976855;28;20196;-61
2020/12/24 08:04:01;;;;;;;4.23;1.90;;;3.70;99.90;;;;;;4976752;28;20221;-58
2020/12/24 08:06:28;;;;;;;2.85;2.03;;;3.60;99.90;;;;;;4976823;28;20204;-58
2020/12/24 08:09:17;;;;;;;1.75;0.90;;;3.60;99.90;;;;;;4976656;28;20507;-61
2020/12/24 08:11:56;;;;;;;3.38;2.10;;;3.60;99.90;;;;;;4977044;28;20326;-61
2020/12/24 08:14:22;;;;;;;5.32;2.08;;;3.70;99.90;;;;;;4975213;28;20180;-62
2020/12/24 08:16:49;;;;;;;1.52;1.20;;;3.70;99.90;;;;;;4976677;28;20326;-61
2020/12/24 08:19:21;;;;;;;2.35;2.00;;;3.80;99.90;;;;;;4976585;28;20708;-62
2020/12/24 08:22:00;;;;;;;5.80;2.13;;;3.80;99.90;;;;;;4976403;28;20527;-62
2020/12/24 08:24:30;;;;;;;2.42;1.80;;;3.80;99.90;;;;;;4977047;28;20195;-63
2020/12/24 08:26:57;;;;;;;3.13;1.80;;;3.90;99.90;;;;;;4976796;28;20188;-61
2020/12/24 08:29:23;;;;;;;3.63;1.95;;;3.90;99.90;;;;;;4976316;28;20204;-61
2020/12/24 08:31:50;;;;;;;5.85;2.20;;;3.80;99.90;;;;;;4976827;28;20172;-62
2020/12/24 08:34:16;;;;;;;4.63;2.78;;;4.00;99.90;;;;;;4976874;28;20168;-59
2020/12/24 08:36:47;;;;;;;3.50;2.67;;;3.90;99.90;;;;;;4977993;28;20491;-63
2020/12/24 08:39:14;;;;;;;7.57;2.35;;;4.00;99.90;;;;;;4976435;28;20424;-59
2020/12/24 08:41:45;;;;;;;3.42;2.15;;;3.90;99.90;;;;;;4976377;28;20219;-59
2020/12/24 08:44:18;;;;;;;3.03;1.98;;;4.10;99.90;;;;;;4976102;28;20183;-63
2020/12/24 08:46:45;;;;;;;5.57;2.08;;;4.10;99.90;;;;;;4975952;28;20200;-63
2020/12/24 08:49:18;;;;;;;5.28;2.03;;;4.10;99.90;;;;;;4975897;28;20283;-63
2020/12/24 08:51:44;;;;;;;3.10;2.33;;;4.20;99.90;;;;;;4976129;28;20206;-62
2020/12/24 08:54:10;;;;;;;3.40;2.37;;;4.20;99.90;;;;;;4975797;28;20332;-62
2020/12/24 08:56:38;;;;;;;6.40;3.60;;;4.20;99.90;;;;;;4975907;28;20201;-59
2020/12/24 08:59:08;;;;;;;7.43;4.10;;;4.40;99.90;;;;;;4975801;28;20263;-59
2020/12/24 09:01:42;;;;;;;7.68;3.22;;;4.50;99.90;;;;;;4976040;28;20215;-59
2020/12/24 09:04:12;;;;;;;7.35;3.80;;;4.50;99.90;;;;;;4975703;28;20691;-59
2020/12/24 09:06:37;;;;;;;4.65;3.58;;;4.50;99.90;;;;;;4975781;28;20187;-58
2020/12/24 09:09:03;;;;;;;4.33;3.30;;;4.60;99.90;;;;;;4975611;28;20218;-58
2020/12/24 09:11:31;;;;;;;4.10;2.50;;;4.50;99.90;;;;;;4975786;28;20180;-62
2020/12/24 09:14:04;;;;;;;4.38;3.33;;;4.40;99.90;;;;;;4973615;28;20479;-63
2020/12/24 09:16:35;;;;;;;4.90;2.88;;;4.40;99.90;;;;;;4974522;28;20259;-63
2020/12/24 09:19:05;;;;;;;3.72;2.00;;;4.50;99.90;;;;;;4975766;28;20190;-62
2020/12/24 09:21:32;;;;;;;3.25;2.85;;;4.40;99.90;;;;;;4975788;28;20315;-62
2020/12/24 09:24:09;;;;;;;2.55;1.95;;;4.40;99.90;;;;;;4975568;28;20184;-64
2020/12/24 09:26:45;;;;;;;2.30;1.77;;;4.60;99.90;;;;;;4975352;28;20214;-64
2020/12/24 09:29:12;;;;;;;2.40;1.83;;;4.50;99.90;;;;;;4975354;28;20210;-65
2020/12/24 09:31:38;;;;;;;1.65;1.30;;;4.70;99.90;;;;;;4975295;28;20507;-63
2020/12/24 09:34:05;;;;;;;3.97;2.60;;;4.80;99.90;;;;;;4975027;28;20198;-62
2020/12/24 09:36:30;;;;;;;2.45;2.20;;;4.70;99.90;;;;;;4975061;28;20176;-62
2020/12/24 09:38:56;;;;;;;4.57;2.63;;;4.70;99.90;;;;;;4974938;28;20180;-61
2020/12/24 09:41:21;;;;;;;3.87;2.63;;;4.90;99.90;;;;;;4980826;28;20187;-64
2020/12/24 09:43:47;;;;;;;4.90;2.47;;;5.20;99.90;;;;;;4993243;28;20506;-64
2020/12/24 09:46:14;;;;;;;3.50;3.20;;;4.90;99.90;;;;;;4993337;28;20662;-63
2020/12/24 09:48:40;;;;;;;5.57;2.88;;;4.90;99.90;;;;;;4975761;28;20216;-63
2020/12/24 09:51:05;;;;;;;3.70;3.13;;;4.90;99.90;;;;;;4976006;28;20180;-63
2020/12/24 09:53:31;;;;;;;3.97;3.07;;;4.90;99.90;;;;;;4973809;28;20199;-64
2020/12/24 09:55:56;;;;;;;8.57;3.70;;;5.10;99.90;;;;;;4974644;28;20184;-63
2020/12/24 09:58:22;;;;;;;6.20;3.30;;;5.20;99.90;;;;;;4975578;28;20187;-63
2020/12/24 10:00:48;;;;;;;4.40;3.43;;;5.10;99.90;;;;;;4983874;28;20191;-63
2020/12/24 10:03:13;;;;;;;6.40;4.23;;;5.20;99.90;;;;;;4993731;28;20183;-64
2020/12/24 10:05:39;;;;;;;3.90;3.13;;;5.30;99.90;;;;;;4994241;28;20441;-64
2020/12/24 10:08:05;;;;;;;4.30;3.00;;;5.30;99.90;;;;;;4994256;28;20230;-59
2020/12/24 10:10:30;;;;;;;3.90;3.00;;;5.30;99.90;;;;;;4994684;28;20257;-62
2020/12/24 10:12:56;;;;;;;6.00;3.50;;;5.40;99.90;;;;;;4994604;28;20925;-62
2020/12/24 10:15:22;;;;;;;5.00;3.20;;;5.60;99.90;;;;;;4994585;28;20207;-62
2020/12/24 10:17:48;;;;;;;4.90;3.13;;;5.50;99.90;;;;;;4994718;28;20199;-62
2020/12/24 10:20:14;;;;;;;5.50;3.80;;;5.60;99.90;;;;;;4988224;28;20492;-64
2020/12/24 10:22:40;;;;;;;6.30;4.03;;;5.70;99.90;;;;;;4975157;28;20625;-62
2020/12/24 10:25:05;;;;;;;6.50;3.43;;;5.60;99.90;;;;;;4970676;28;20447;-62
2020/12/24 10:27:31;;;;;;;8.00;4.70;;;5.60;99.90;;;;;;4972601;28;20518;-61
2020/12/24 10:29:57;;;;;;;5.07;3.77;;;5.70;99.90;;;;;;4975396;28;20305;-65
2020/12/24 10:32:23;;;;;;;8.17;4.80;;;5.80;99.90;;;;;;4975158;28;20176;-65
2020/12/24 10:34:49;;;;;;;16.65;10.77;;;5.80;83.40;;;;;;4973948;28;20423;-63
2020/12/24 10:37:15;;;;;;;11.93;8.00;;;5.50;55.70;;;;;;4976769;28;20184;-63
2020/12/24 10:39:40;;;;;;;11.00;6.83;;;5.40;93.10;;;;;;4978845;28;20176;-62
2020/12/24 10:42:06;;;;;;;11.00;5.20;;;5.30;99.90;;;;;;4979184;28;20179;-68
2020/12/24 10:44:36;;;;;;;8.45;5.88;;;5.40;99.90;;;;;;4985417;28;20238;-66
2020/12/24 10:47:01;;;;;;;11.63;6.97;;;5.50;99.90;;;;;;4998369;28;20183;-65
2020/12/24 10:49:27;;;;;;;10.93;6.17;;;5.70;99.90;;;;;;4997825;28;20534;-65
2020/12/24 10:51:53;;;;;;;11.33;6.80;;;5.60;99.90;;;;;;4998483;28;20422;-64
2020/12/24 10:54:20;;;;;;;8.63;6.40;;;5.60;99.90;;;;;;4997689;28;20426;-65
2020/12/24 10:56:47;;;;;;;11.10;6.15;;;5.80;99.90;;;;;;4997529;28;20902;-65
2020/12/24 10:59:14;;;;;;;11.45;6.47;;;5.70;99.90;;;;;;4997964;28;20199;-71
2020/12/24 11:01:45;;;;;;;15.48;7.35;;;5.80;99.90;;;;;;4997445;28;20198;-65
2020/12/24 11:04:11;;;;;;;11.65;6.68;;;5.90;99.90;;;;;;4997331;28;20187;-66
2020/12/24 11:06:37;;;;;;;13.73;7.40;;;5.90;99.90;;;;;;4996409;28;20198;-63
2020/12/24 11:09:02;;;;;;;16.07;8.70;;;5.80;99.90;;;;;;4997368;28;20476;-65
2020/12/24 11:11:34;;;;;;;16.37;7.70;;;5.80;99.90;;;;;;4997532;28;20529;-64
2020/12/24 11:13:59;;;;;;;13.55;7.53;;;6.10;99.90;;;;;;4981829;28;20978;-65
2020/12/24 11:16:25;;;;;;;10.13;6.20;;;6.00;99.90;;;;;;4977540;28;20183;-63
2020/12/24 11:18:52;;;;;;;18.97;9.80;;;6.00;99.90;;;;;;4969617;28;20593;-63
2020/12/24 11:21:19;;;;;;;17.23;10.55;;;5.70;99.90;;;;;;4977567;28;20432;-64
2020/12/24 11:23:45;;;;;;;16.08;9.98;;;5.90;99.90;;;;;;4976673;28;20202;-63
2020/12/24 11:26:11;;;;;;;19.58;10.57;;;5.90;99.90;;;;;;4976196;28;20180;-59
2020/12/24 11:28:38;;;;;;;16.48;9.55;;;6.00;99.90;;;;;;4976926;28;20227;-63
2020/12/24 11:31:03;;;;;;;20.70;11.27;;;6.10;99.90;;;;;;4977899;28;20223;-63
2020/12/24 11:33:29;;;;;;;19.23;10.87;;;6.10;99.90;;;;;;4977450;28;20548;-62
2020/12/24 11:35:54;;;;;;;20.83;13.50;;;6.00;99.90;;;;;;4977663;28;20172;-62
2020/12/24 11:38:20;;;;;;;18.00;10.80;;;5.80;99.90;;;;;;4977358;28;20188;-62
2020/12/24 11:40:46;;;;;;;23.13;12.03;;;5.90;99.90;;;;;;4977745;28;20180;-62
2020/12/24 11:43:11;;;;;;;22.93;12.30;;;6.00;99.90;;;;;;4977386;28;20199;-62
2020/12/24 11:45:37;;;;;;;26.60;13.93;;;5.80;99.90;;;;;;4977791;28;20172;-62
2020/12/24 11:48:02;;;;;;;26.80;14.03;;;5.70;99.90;;;;;;4976235;28;20191;-63
2020/12/24 11:50:28;;;;;;;23.03;13.23;;;5.70;99.90;;;;;;4976045;28;20286;-64
2020/12/24 11:52:53;;;;;;;23.20;13.10;;;5.80;99.90;;;;;;4974289;28;20189;-67
2020/12/24 11:55:19;;;;;;;30.47;14.60;;;5.90;99.90;;;;;;4976251;28;20184;-63
2020/12/24 11:57:44;;;;;;;23.40;13.73;;;5.80;99.90;;;;;;4977400;28;20183;-63
2020/12/24 12:00:10;;;;;;;26.80;14.10;;;5.80;99.90;;;;;;4977457;28;20207;-66
2020/12/24 12:02:39;;;;;;;26.35;13.30;;;5.90;99.90;;;;;;4977049;28;20566;-63
2020/12/24 12:05:06;;;;;;;23.67;13.93;;;5.80;99.90;;;;;;4974987;28;20200;-66
2020/12/24 12:07:32;;;;;;;24.17;14.25;;;6.10;99.90;;;;;;4977466;28;20188;-65
2020/12/24 12:09:58;;;;;;;28.70;14.05;;;5.90;99.90;;;;;;4977133;28;20621;-66
2020/12/24 12:12:25;;;;;;;30.15;14.55;;;6.10;99.90;;;;;;4977000;28;20202;-66
2020/12/24 12:14:51;;;;;;;23.20;12.52;;;6.20;99.90;;;;;;4976695;28;20176;-66
2020/12/24 12:17:17;;;;;;;23.40;13.57;;;6.10;99.90;;;;;;4978148;28;20259;-65
2020/12/24 12:19:46;;;;;;;23.50;13.25;;;5.90;99.90;;;;;;4977489;28;20609;-66
2020/12/24 12:22:12;;;;;;;20.55;12.90;;;6.20;99.90;;;;;;4978027;28;20239;-66
2020/12/24 12:24:41;;;;;;;17.50;10.40;;;6.30;99.90;;;;;;4976399;28;20622;-66
2020/12/24 12:27:08;;;;;;;17.83;11.75;;;6.10;99.90;;;;;;4975560;28;20743;-63
2020/12/24 12:29:34;;;;;;;14.63;8.15;;;5.90;99.90;;;;;;4976264;28;20220;-62
2020/12/24 12:32:00;;;;;;;15.60;8.27;;;5.90;99.90;;;;;;4976486;28;20194;-63
2020/12/24 12:34:26;;;;;;;14.63;8.75;;;5.70;99.90;;;;;;4976227;28;20200;-61
2020/12/24 12:36:53;;;;;;;13.63;8.50;;;5.80;99.90;;;;;;4976441;28;20535;-61
2020/12/24 12:39:20;;;;;;;12.98;8.35;;;5.80;99.90;;;;;;4975452;28;20587;-61
2020/12/24 12:41:47;;;;;;;11.50;8.32;;;6.10;99.90;;;;;;4974974;28;20621;-63
2020/12/24 12:44:12;;;;;;;10.77;7.97;;;6.00;99.90;;;;;;4974344;28;20192;-62
2020/12/24 12:46:38;;;;;;;15.23;7.63;;;6.10;99.90;;;;;;4974941;28;20194;-62
2020/12/24 12:49:04;;;;;;;11.43;7.30;;;6.10;99.90;;;;;;4975663;28;20316;-65
2020/12/24 12:51:29;;;;;;;14.30;8.90;;;6.30;99.90;;;;;;4975539;28;20204;-66
2020/12/24 12:53:55;;;;;;;14.17;8.37;;;6.40;97.40;;;;;;4974654;28;20180;-65
2020/12/24 12:56:23;;;;;;;17.70;9.70;;;6.40;38.00;;;;;;4976088;28;20183;-65
2020/12/24 12:58:52;;;;;;;11.63;7.70;;;6.20;20.40;;;;;;4974228;28;20199;-65